< < Back
Terminal Aerodrome Forecast


Current Version              Previous Versions:   1  2  3  4  5  6  7  8  9  

Terminal Aerodrome Forecast

605
FTUS44 KMOB 251724
TAFPNS
TAF
KPNS 251724Z 2518/2618 24014G21KT P6SM FEW017 OVC025
     FM252100 21010KT P6SM VCTS SCT030CB OVC050
      TEMPO 2521/2524 2SM TSRA BKN020CB
     FM260100 23005KT P6SM BKN010
     FM261200 25003KT 2SM BR OVC005
     FM261500 27005KT P6SM SCT250=



Latest METAR

234
SAUS70 KWBC 252100 RRL
MTRPNS
METAR KPNS 252053Z 28012G29KT 10SM R17/3500VP6000FT -TSRA BKN010 BKN060
BKN090 23/20 A2979 RMK AO2 PK WND 30029/2048 WSHFT 2039 LTG
DSNT ALQDS RAB46 TSB40 SLP087 P0010 60010 T02280200 55005


USA.gov is the U.S. government's official web portal to all federal, state and local government web resources and services.